Time;durP1;ratioP1;P1;durP2;ratioP2;P2;SDS_P1;SDS_P2;PMS_P1;PMS_P2;Temp;Humidity;BMP_temperature;BMP_pressure;BME280_temperature;BME280_humidity;BME280_pressure;Samples;Min_cycle;Max_cycle;Signal;HPM_P1;HPM_P2
2023/01/10 00:01:44;;;;;;;5.40;1.65;;;;;;;25.77;31.64;101762.59;5096110;28;20028;-39
2023/01/10 00:04:12;;;;;;;6.32;1.70;;;;;;;25.74;31.82;101763.41;5096251;28;20128;-40
2023/01/10 00:06:41;;;;;;;6.00;1.60;;;;;;;25.74;32.17;101776.53;5095466;28;20024;-41
2023/01/10 00:09:11;;;;;;;6.40;1.75;;;;;;;25.73;32.03;101780.03;5078327;28;20101;-39
2023/01/10 00:14:28;;;;;;;5.70;1.80;;;;;;;25.74;31.92;101770.41;5093202;28;20043;-43
2023/01/10 00:16:57;;;;;;;4.88;1.70;;;;;;;25.65;32.17;101754.50;5104291;28;20493;-41
2023/01/10 00:19:25;;;;;;;7.88;1.75;;;;;;;25.72;32.05;101769.50;5103803;28;20036;-41
2023/01/10 00:21:56;;;;;;;5.68;1.70;;;;;;;25.69;32.00;101777.31;5116407;28;20020;-41
2023/01/10 00:24:24;;;;;;;6.50;1.52;;;;;;;25.67;32.16;101773.78;5098217;28;20024;-40
2023/01/10 00:26:53;;;;;;;6.50;1.70;;;;;;;25.69;32.00;101777.31;5116222;28;20454;-44
2023/01/10 00:29:26;;;;;;;4.88;1.77;;;;;;;25.69;32.00;101772.97;5115920;28;20023;-41
2023/01/10 00:31:54;;;;;;;4.35;1.35;;;;;;;25.74;32.00;101773.91;5082056;28;20019;-40
2023/01/10 00:34:23;;;;;;;7.20;2.20;;;;;;;25.73;31.97;101776.53;5115959;28;20020;-41
2023/01/10 00:36:52;;;;;;;4.20;1.73;;;;;;;25.66;32.05;101777.25;5115931;28;20107;-39
2023/01/10 00:39:20;;;;;;;4.15;1.15;;;;;;;25.58;31.86;101759.63;5097765;28;20023;-40
2023/01/10 00:44:36;;;;;;;4.75;1.63;;;;;;;25.62;32.11;101766.72;5093087;28;20063;-41
2023/01/10 00:47:05;;;;;;;5.20;1.63;;;;;;;25.61;32.18;101767.56;5115208;28;20040;-40
2023/01/10 00:49:33;;;;;;;5.63;1.58;;;;;;;25.61;31.95;101767.56;5115720;28;20055;-48
2023/01/10 00:52:02;;;;;;;5.95;1.70;;;;;;;25.61;31.84;101772.81;5115719;28;20015;-45
2023/01/10 00:54:30;;;;;;;5.28;1.67;;;;;;;25.62;32.40;101766.72;5097696;28;20055;-47
2023/01/10 00:56:59;;;;;;;4.55;1.52;;;;;;;25.65;32.14;101765.00;5097133;28;20055;-40
2023/01/10 00:59:28;;;;;;;6.30;2.03;;;;;;;25.63;32.05;101757.06;5115312;28;20024;-44
2023/01/10 01:01:57;;;;;;;3.75;1.20;;;;;;;25.62;32.21;101747.41;5115364;28;20023;-44
2023/01/10 01:04:26;;;;;;;4.18;1.27;;;;;;;25.62;32.20;101743.06;5115250;28;20051;-41
2023/01/10 01:06:54;;;;;;;5.38;1.95;;;;;;;25.61;32.36;101740.41;5114820;28;20059;-45
2023/01/10 01:09:23;;;;;;;3.88;1.25;;;;;;;25.60;32.17;101741.25;5115152;28;20032;-45
2023/01/10 01:11:52;;;;;;;4.45;1.30;;;;;;;25.62;32.42;101734.28;5115267;28;20024;-52
2023/01/10 01:14:20;;;;;;;3.70;1.20;;;;;;;25.60;32.20;101730.75;5115329;28;20023;-39
2023/01/10 01:16:49;;;;;;;3.22;1.05;;;;;;;25.60;32.43;101730.75;5114877;28;20520;-43
2023/01/10 01:19:18;;;;;;;3.22;1.00;;;;;;;25.59;32.18;101729.88;5115107;28;20426;-40
2023/01/10 01:21:47;;;;;;;6.32;1.58;;;;;;;25.56;32.32;101735.06;5115362;28;20099;-43
2023/01/10 01:24:15;;;;;;;3.35;1.10;;;;;;;25.57;32.51;101721.06;5114863;28;20031;-40
2023/01/10 01:26:44;;;;;;;5.80;1.27;;;;;;;25.53;32.50;101715.75;5114181;28;20070;-42
2023/01/10 01:29:13;;;;;;;3.50;1.40;;;;;;;25.59;32.29;101718.47;5114552;28;20036;-42
2023/01/10 01:31:42;;;;;;;2.88;1.10;;;;;;;25.61;32.48;101714.13;5113849;28;20542;-44
2023/01/10 01:34:10;;;;;;;3.92;1.65;;;;;;;25.61;32.17;101716.75;5114665;28;20031;-44
2023/01/10 01:36:39;;;;;;;2.60;1.38;;;;;;;25.57;32.39;101704.41;5114273;28;20385;-43
2023/01/10 01:39:09;;;;;;;4.05;1.50;;;;;;;25.60;32.29;101710.63;5114619;28;20489;-43
2023/01/10 01:41:59;;;;;;;3.38;1.42;;;;;;;25.63;32.21;101704.53;5114695;28;20040;-40
2023/01/10 01:44:31;;;;;;;3.22;1.15;;;;;;;25.63;32.26;101701.91;5113966;28;20058;-40
2023/01/10 01:47:03;;;;;;;6.82;1.33;;;;;;;25.59;32.31;101700.06;5114436;28;20034;-43
2023/01/10 01:49:33;;;;;;;5.75;1.73;;;;;;;25.59;32.33;101698.34;5114601;28;20161;-40
2023/01/10 01:52:05;;;;;;;1.55;0.85;;;;;;;25.58;32.09;101686.06;5114518;28;20023;-43
2023/01/10 01:54:35;;;;;;;7.25;1.88;;;;;;;25.61;32.30;101686.13;5096404;28;20024;-42
2023/01/10 01:57:09;;;;;;;2.35;0.90;;;;;;;25.62;32.15;101674.75;5096050;28;20043;-48
2023/01/10 01:59:42;;;;;;;2.75;0.75;;;;;;;25.62;32.26;101673.84;5096264;28;20039;-43
2023/01/10 02:02:15;;;;;;;2.90;0.98;;;;;;;25.60;32.02;101681.72;5114422;28;20028;-46
2023/01/10 02:04:50;;;;;;;4.95;1.13;;;;;;;25.59;32.18;101693.09;5114198;28;20033;-39
2023/01/10 02:07:19;;;;;;;3.53;1.10;;;;;;;25.59;32.31;101682.56;5114332;28;20031;-44
2023/01/10 02:10:02;;;;;;;3.75;1.17;;;;;;;25.62;32.22;101674.75;5114190;28;20039;-43
2023/01/10 02:12:30;;;;;;;3.67;1.38;;;;;;;25.61;31.76;101674.72;5114426;28;20482;-40
2023/01/10 02:14:59;;;;;;;2.42;1.02;;;;;;;25.61;32.02;101664.19;5114259;28;20023;-42
2023/01/10 02:17:27;;;;;;;4.38;1.20;;;;;;;25.57;32.16;101660.66;5078514;28;20114;-44
2023/01/10 02:20:00;;;;;;;3.83;1.38;;;;;;;25.58;32.22;101665.03;5113977;28;20034;-41
2023/01/10 02:23:01;;;;;;;4.53;1.35;;;;;;;25.56;32.01;101661.50;5113722;28;20035;-40
2023/01/10 02:26:07;;;;;;;2.67;0.90;;;;;;;25.57;32.11;101651.84;5110538;28;20050;-41
2023/01/10 02:28:36;;;;;;;3.40;1.08;;;;;;;25.62;32.18;101650.22;5104621;28;20389;-41
2023/01/10 02:31:23;;;;;;;3.60;1.05;;;;;;;25.58;32.27;101646.66;5113408;28;20031;-41
2023/01/10 02:34:02;;;;;;;4.07;1.27;;;;;;;25.59;32.12;101647.53;5113559;28;20043;-44
2023/01/10 02:37:08;;;;;;;4.75;1.30;;;;;;;25.56;32.39;101651.00;5113263;28;20031;-40
2023/01/10 02:39:40;;;;;;;3.30;1.15;;;;;;;25.61;31.91;101645.81;5105384;28;20119;-42
2023/01/10 02:42:19;;;;;;;4.25;1.50;;;;;;;25.65;31.89;101649.41;5113391;28;20031;-43
2023/01/10 02:44:54;;;;;;;3.45;1.00;;;;;;;25.69;31.79;101641.59;5112962;28;20028;-43
2023/01/10 02:47:23;;;;;;;2.90;1.02;;;;;;;25.63;31.86;101626.59;5095425;28;20105;-41
2023/01/10 02:49:52;;;;;;;3.22;0.95;;;;;;;25.57;32.18;101631.75;5094880;28;20030;-40
2023/01/10 02:52:26;;;;;;;3.45;1.20;;;;;;;25.58;32.07;101628.25;5113394;28;20042;-42
2023/01/10 02:54:59;;;;;;;2.90;1.15;;;;;;;25.59;31.97;101618.63;5095253;28;20028;-45
2023/01/10 02:57:37;;;;;;;4.65;1.25;;;;;;;25.61;32.13;101616.91;5094953;28;20502;-40
2023/01/10 03:00:14;;;;;;;3.65;1.23;;;;;;;25.60;32.13;101602.91;5095583;28;20020;-40
2023/01/10 03:02:44;;;;;;;1.95;0.85;;;;;;;25.68;32.04;101592.50;5095830;28;20020;-39
2023/01/10 03:05:38;;;;;;;1.73;0.80;;;;;;;25.59;32.21;101602.84;5094964;28;20081;-39
2023/01/10 03:08:19;;;;;;;3.22;0.90;;;;;;;25.54;32.14;101600.16;5073463;28;20039;-40
2023/01/10 03:10:54;;;;;;;2.95;1.20;;;;;;;25.58;32.16;101598.47;5112936;28;20020;-40
2023/01/10 03:13:43;;;;;;;3.65;0.93;;;;;;;25.54;31.98;101600.16;5095538;28;20028;-42
2023/01/10 03:16:16;;;;;;;2.67;0.98;;;;;;;25.59;32.33;101589.72;5094848;28;20036;-39
2023/01/10 03:18:49;;;;;;;3.15;0.90;;;;;;;25.61;31.81;101575.78;5113046;28;20378;-39
2023/01/10 03:21:19;;;;;;;4.75;1.02;;;;;;;25.56;32.25;101566.06;5095304;28;20371;-40
2023/01/10 03:23:49;;;;;;;2.88;1.00;;;;;;;25.60;31.96;101557.34;5113166;28;20107;-40
2023/01/10 03:26:22;;;;;;;2.70;0.85;;;;;;;25.54;31.94;101550.25;5112700;28;20024;-40
2023/01/10 03:28:52;;;;;;;2.28;0.93;;;;;;;25.56;32.07;101551.16;5113215;28;20028;-39
2023/01/10 03:31:27;;;;;;;3.38;1.20;;;;;;;25.52;31.84;101544.09;5094735;28;20028;-40
2023/01/10 03:33:56;;;;;;;6.32;1.45;;;;;;;25.53;32.15;101539.72;5113116;28;20632;-40
2023/01/10 03:36:50;;;;;;;4.43;1.10;;;;;;;25.54;32.03;101531.84;5094834;28;20036;-40
2023/01/10 03:39:40;;;;;;;3.65;0.80;;;;;;;25.51;32.21;101547.56;5106924;28;20446;-39
2023/01/10 03:42:15;;;;;;;1.75;0.70;;;;;;;25.47;32.30;101537.91;5089005;28;20044;-42
2023/01/10 03:44:45;;;;;;;2.88;1.00;;;;;;;25.52;32.15;101546.72;5094830;28;20100;-39
2023/01/10 03:47:39;;;;;;;2.97;0.80;;;;;;;25.51;32.30;101544.94;5112680;28;20478;-40
2023/01/10 03:50:11;;;;;;;3.30;1.07;;;;;;;25.48;31.95;101540.53;5110804;28;20147;-42
2023/01/10 03:52:41;;;;;;;3.40;1.05;;;;;;;25.51;32.02;101531.81;5095115;28;20028;-39
2023/01/10 03:55:12;;;;;;;3.92;0.88;;;;;;;25.69;31.68;101525.06;5114888;28;20023;-41
2023/01/10 03:57:44;;;;;;;3.10;1.02;;;;;;;25.50;32.08;101502.91;5116158;28;20055;-40
2023/01/10 04:00:14;;;;;;;2.30;0.68;;;;;;;25.51;32.19;101515.19;5116874;28;20028;-40
2023/01/10 04:02:43;;;;;;;4.38;0.70;;;;;;;25.52;32.15;101503.81;5116392;28;20054;-42
2023/01/10 04:05:12;;;;;;;3.03;1.02;;;;;;;25.50;32.10;101500.28;5116694;28;20046;-39
2023/01/10 04:07:41;;;;;;;3.30;0.60;;;;;;;25.48;32.26;101495.88;5116514;28;20106;-40
2023/01/10 04:10:10;;;;;;;2.67;0.82;;;;;;;25.50;32.05;101485.38;5116263;28;20047;-40
2023/01/10 04:12:38;;;;;;;2.67;0.82;;;;;;;25.50;32.03;101466.13;5116022;28;20419;-40
2023/01/10 04:15:07;;;;;;;2.63;1.00;;;;;;;25.48;32.24;101497.63;5116045;28;20035;-39
2023/01/10 04:17:36;;;;;;;4.00;0.90;;;;;;;25.52;32.08;101480.16;5116050;28;20550;-40
2023/01/10 04:20:04;;;;;;;3.97;1.25;;;;;;;25.54;32.22;101483.69;5115577;28;20039;-40
2023/01/10 04:22:32;;;;;;;3.85;0.95;;;;;;;25.51;31.95;101483.66;5116104;28;20041;-41
2023/01/10 04:25:01;;;;;;;2.15;0.55;;;;;;;25.54;32.15;101486.34;5115958;28;20027;-39
2023/01/10 04:27:30;;;;;;;3.40;1.20;;;;;;;25.45;32.31;101476.56;5116014;28;20020;-40
2023/01/10 04:29:58;;;;;;;4.03;0.90;;;;;;;25.49;32.17;101475.72;5116213;28;20030;-40
2023/01/10 04:32:27;;;;;;;3.70;0.98;;;;;;;25.50;32.15;101488.00;5115614;28;20024;-40
2023/01/10 04:34:56;;;;;;;2.65;0.85;;;;;;;25.54;32.33;101463.56;5116117;28;20020;-41
2023/01/10 04:37:25;;;;;;;2.35;0.88;;;;;;;25.51;32.11;101473.16;5115882;28;20051;-39
2023/01/10 04:39:54;;;;;;;2.65;0.98;;;;;;;25.48;32.37;101463.50;5115980;28;20026;-42
2023/01/10 04:42:23;;;;;;;2.72;1.08;;;;;;;25.59;31.81;101471.50;5104255;28;20080;-41
2023/01/10 04:44:51;;;;;;;2.25;0.80;;;;;;;25.55;31.99;101461.81;5107318;28;20043;-43
2023/01/10 04:47:20;;;;;;;2.60;1.05;;;;;;;25.51;32.20;101478.41;5098369;28;20039;-41
2023/01/10 04:49:49;;;;;;;3.63;1.10;;;;;;;25.66;32.10;101464.56;5104758;28;20020;-42
2023/01/10 04:52:17;;;;;;;3.72;1.20;;;;;;;25.60;32.11;101457.50;5115709;28;20016;-43
2023/01/10 04:54:46;;;;;;;3.67;1.20;;;;;;;25.58;32.01;101448.72;5097336;28;20024;-41
2023/01/10 04:57:14;;;;;;;4.35;1.08;;;;;;;25.70;31.83;101463.75;5114622;28;20040;-42
2023/01/10 04:59:43;;;;;;;2.53;1.00;;;;;;;25.52;32.18;101449.50;5115768;28;20035;-41
2023/01/10 05:02:12;;;;;;;4.13;1.40;;;;;;;25.63;31.90;101468.97;5115328;28;20473;-39
2023/01/10 05:04:40;;;;;;;3.60;1.30;;;;;;;25.66;32.19;101470.72;5097271;28;20028;-40
2023/01/10 05:07:09;;;;;;;4.03;1.50;;;;;;;25.59;32.12;101469.78;5114935;28;20027;-43
2023/01/10 05:09:38;;;;;;;3.53;1.30;;;;;;;25.55;31.81;101470.56;5114991;28;20035;-39
2023/01/10 05:12:06;;;;;;;4.90;1.20;;;;;;;25.50;32.54;101471.38;5115375;28;20148;-40
2023/01/10 05:14:35;;;;;;;6.13;1.50;;;;;;;25.57;32.18;101465.34;5114703;28;20085;-44
2023/01/10 05:17:04;;;;;;;5.47;1.80;;;;;;;25.64;32.05;101464.56;5114861;28;20501;-41
2023/01/10 05:19:32;;;;;;;4.25;1.45;;;;;;;25.51;32.35;101471.38;5114915;28;20098;-39
2023/01/10 05:22:01;;;;;;;7.80;1.83;;;;;;;25.57;32.24;101463.59;5114524;28;20516;-39
2023/01/10 05:24:30;;;;;;;5.32;1.73;;;;;;;25.65;32.00;101471.59;5114538;28;20024;-43
2023/01/10 05:26:58;;;;;;;4.53;1.52;;;;;;;25.53;32.35;101472.28;5114589;28;20035;-40
2023/01/10 05:29:27;;;;;;;3.85;1.60;;;;;;;25.56;32.33;101459.22;5114865;28;20023;-40
2023/01/10 05:31:56;;;;;;;5.82;1.58;;;;;;;25.44;32.49;101466.94;5114766;28;20053;-44
2023/01/10 05:34:25;;;;;;;4.47;1.42;;;;;;;25.50;32.60;101463.50;5114797;28;20019;-39
2023/01/10 05:36:54;;;;;;;5.20;2.03;;;;;;;25.40;32.44;101460.69;5114226;28;20032;-41
2023/01/10 05:39:22;;;;;;;5.32;1.80;;;;;;;25.46;32.63;101446.81;5114875;28;20470;-39
2023/01/10 05:41:51;;;;;;;5.40;1.60;;;;;;;25.55;32.25;101451.31;5096635;28;20036;-45
2023/01/10 05:44:19;;;;;;;5.45;1.73;;;;;;;25.68;32.09;101455.88;5114629;28;20055;-40
2023/01/10 05:46:47;;;;;;;7.57;1.95;;;;;;;25.41;32.79;101451.94;5114280;28;20034;-42
2023/01/10 05:49:15;;;;;;;6.55;2.38;;;;;;;25.45;32.56;101447.69;5096176;28;20027;-43
2023/01/10 05:51:44;;;;;;;8.80;2.13;;;;;;;25.45;32.51;101452.94;5114335;28;20024;-42
2023/01/10 05:54:13;;;;;;;6.32;2.25;;;;;;;25.51;32.56;101445.13;5114308;28;20385;-44
2023/01/10 05:56:42;;;;;;;6.35;1.80;;;;;;;25.51;32.33;101445.13;5113787;28;20107;-42
2023/01/10 05:59:10;;;;;;;6.95;1.77;;;;;;;25.49;32.37;101438.97;5114360;28;20035;-44
2023/01/10 06:01:39;;;;;;;4.72;1.88;;;;;;;25.42;32.60;101431.88;5114076;28;20420;-43
2023/01/10 06:04:08;;;;;;;6.43;1.92;;;;;;;25.44;32.63;101431.03;5114119;28;20027;-47
2023/01/10 06:06:36;;;;;;;7.95;2.22;;;;;;;25.41;32.48;101432.69;5113971;28;20035;-41
2023/01/10 06:09:05;;;;;;;5.55;2.00;;;;;;;25.48;32.55;101431.97;5113754;28;20023;-40
2023/01/10 06:11:36;;;;;;;6.60;2.13;;;;;;;25.45;32.69;101429.28;5114126;28;20500;-42
2023/01/10 06:14:06;;;;;;;7.60;2.53;;;;;;;25.46;32.48;101420.56;5114697;28;20042;-41
2023/01/10 06:16:34;;;;;;;6.32;2.30;;;;;;;25.41;32.33;101415.19;5113634;28;20102;-47
2023/01/10 06:19:03;;;;;;;7.10;2.10;;;;;;;25.48;32.71;101424.09;5113327;28;20478;-42
2023/01/10 06:21:32;;;;;;;8.80;2.05;;;;;;;25.44;32.52;101417.03;5114087;28;20066;-40
2023/01/10 06:24:00;;;;;;;5.88;2.22;;;;;;;25.42;32.62;101424.84;5113812;28;20448;-40
2023/01/10 06:26:28;;;;;;;6.22;2.10;;;;;;;25.30;32.81;101409.78;5112974;28;20034;-42
2023/01/10 06:28:58;;;;;;;10.05;2.55;;;;;;;25.45;32.36;101419.66;5113307;28;20035;-42
2023/01/10 06:31:27;;;;;;;5.43;2.33;;;;;;;25.53;32.04;101424.16;5113714;28;20038;-43
2023/01/10 06:33:55;;;;;;;6.63;2.55;;;;;;;25.56;32.66;101416.31;5113377;28;20024;-42
2023/01/10 06:36:24;;;;;;;8.20;2.10;;;;;;;25.54;32.56;101418.03;5113365;28;20410;-44
2023/01/10 06:38:53;;;;;;;6.68;2.20;;;;;;;25.47;32.69;101427.56;5113773;28;20029;-43
2023/01/10 06:41:20;;;;;;;5.88;2.45;;;;;;;25.53;32.38;101416.25;5113752;28;20374;-40
2023/01/10 06:43:49;;;;;;;7.05;2.72;;;;;;;25.44;32.77;101420.50;5113268;28;20165;-42
2023/01/10 06:46:18;;;;;;;6.07;2.17;;;;;;;25.36;33.11;101423.84;5095489;28;20019;-40
2023/01/10 06:48:47;;;;;;;7.13;2.47;;;;;;;25.32;32.87;101428.19;5113382;28;20034;-41
2023/01/10 06:51:17;;;;;;;7.85;2.47;;;;;;;25.38;32.74;101420.41;5113576;28;20102;-42
2023/01/10 06:53:46;;;;;;;7.20;2.25;;;;;;;25.43;32.93;101421.38;5113264;28;20470;-44
2023/01/10 06:56:14;;;;;;;9.50;2.30;;;;;;;25.44;32.88;101419.66;5113449;28;20024;-45
2023/01/10 06:58:43;;;;;;;6.30;2.13;;;;;;;25.47;32.59;101420.56;5095034;28;20043;-43
2023/01/10 07:01:17;;;;;;;6.55;2.42;;;;;;;25.39;32.84;101424.81;5113406;28;20058;-41
2023/01/10 07:03:46;;;;;;;6.68;2.00;;;;;;;25.38;32.80;101422.13;5113558;28;20102;-41
2023/01/10 07:06:15;;;;;;;10.00;4.03;;;;;;;25.50;32.52;101432.84;5113018;28;20023;-41
2023/01/10 07:08:46;;;;;;;7.32;2.28;;;;;;;25.50;32.68;101430.22;5113259;28;20059;-41
2023/01/10 07:11:16;;;;;;;8.38;2.97;;;;;;;25.56;32.59;101426.81;5113627;28;20034;-43
2023/01/10 07:13:45;;;;;;;10.43;2.88;;;;;;;25.47;32.59;101432.81;5113160;28;20020;-43
2023/01/10 07:16:15;;;;;;;10.85;2.58;;;;;;;25.42;32.78;101424.84;5113290;28;20419;-45
2023/01/10 07:18:44;;;;;;;7.22;3.13;;;;;;;25.39;32.61;101427.44;5113344;28;20432;-41
2023/01/10 07:21:14;;;;;;;7.88;2.75;;;;;;;25.43;32.90;101424.00;5113488;28;20494;-44
2023/01/10 07:23:42;;;;;;;11.38;3.13;;;;;;;25.36;32.92;101437.88;5113357;28;20031;-41
2023/01/10 07:26:16;;;;;;;9.20;3.15;;;;;;;25.36;32.86;101440.50;5113023;28;20028;-42
2023/01/10 07:28:46;;;;;;;6.95;2.40;;;;;;;25.38;33.03;101438.78;5112699;28;20066;-40
2023/01/10 07:31:15;;;;;;;9.07;2.90;;;;;;;25.40;33.01;101444.06;5116830;28;20474;-46
2023/01/10 07:33:43;;;;;;;8.15;2.58;;;;;;;25.28;33.00;101447.38;5117310;28;20115;-43
2023/01/10 07:36:12;;;;;;;9.18;2.45;;;;;;;25.28;33.14;101447.38;5116655;28;20034;-45
2023/01/10 07:38:41;;;;;;;10.82;2.55;;;;;;;25.30;32.97;101443.03;5116424;28;20027;-41
2023/01/10 07:41:10;;;;;;;7.10;2.85;;;;;;;25.38;33.01;101441.44;5117039;28;20080;-41
2023/01/10 07:43:38;;;;;;;8.60;3.03;;;;;;;25.46;33.00;101429.31;5116784;28;20043;-42
2023/01/10 07:46:08;;;;;;;10.57;2.67;;;;;;;25.43;32.78;101439.75;5116726;28;20106;-42
2023/01/10 07:48:37;;;;;;;10.20;3.25;;;;;;;25.39;33.10;101437.03;5098626;28;20028;-41
2023/01/10 07:51:06;;;;;;;10.00;2.70;;;;;;;25.46;32.94;101441.56;5116394;28;20020;-41
2023/01/10 07:53:35;;;;;;;6.35;2.20;;;;;;;25.45;32.93;101439.81;5116863;28;20031;-41
2023/01/10 07:56:04;;;;;;;9.55;3.47;;;;;;;25.32;33.21;101442.19;5098480;28;20024;-42
2023/01/10 07:58:33;;;;;;;11.20;3.10;;;;;;;25.31;33.46;101435.19;5116648;28;20048;-41
2023/01/10 08:01:02;;;;;;;9.43;2.97;;;;;;;25.28;33.40;101440.41;5116401;28;20027;-41
2023/01/10 08:03:32;;;;;;;9.10;2.75;;;;;;;25.32;33.23;101450.06;5116684;28;20023;-41
2023/01/10 08:06:02;;;;;;;11.73;3.65;;;;;;;25.32;33.35;101447.44;5116641;28;20084;-40
2023/01/10 08:08:31;;;;;;;9.18;2.75;;;;;;;25.37;33.40;101434.41;5116423;28;20038;-43
2023/01/10 08:11:01;;;;;;;10.85;3.40;;;;;;;25.34;33.12;101432.59;5116540;28;20028;-42
2023/01/10 08:13:30;;;;;;;10.73;3.33;;;;;;;25.32;33.23;101442.19;5116659;28;20034;-41
2023/01/10 08:16:00;;;;;;;16.75;3.33;;;;;;;25.39;33.10;101435.31;5116287;28;20111;-41
2023/01/10 08:18:28;;;;;;;9.57;3.17;;;;;;;25.33;33.44;101441.31;5116500;28;20043;-41
2023/01/10 08:20:57;;;;;;;13.70;4.20;;;;;;;25.27;33.53;101435.09;5116120;28;20101;-40
2023/01/10 08:23:25;;;;;;;12.30;3.13;;;;;;;25.34;33.65;101439.59;5116168;28;20028;-41
2023/01/10 08:25:54;;;;;;;12.63;3.72;;;;;;;25.30;33.63;101437.78;5115728;28;20023;-41
2023/01/10 08:28:23;;;;;;;13.00;3.67;;;;;;;25.28;33.47;101432.53;5116125;28;20038;-41
2023/01/10 08:30:54;;;;;;;10.32;3.33;;;;;;;25.30;33.34;101438.69;5116229;28;20431;-41
2023/01/10 08:33:23;;;;;;;13.30;3.65;;;;;;;25.48;33.26;101443.34;5115793;28;20065;-41
2023/01/10 08:35:52;;;;;;;14.48;3.67;;;;;;;25.37;33.54;101441.38;5115589;28;20035;-41
2023/01/10 08:38:21;;;;;;;12.77;3.47;;;;;;;25.33;33.63;101446.59;5115338;28;20521;-41
2023/01/10 08:40:50;;;;;;;8.80;3.10;;;;;;;25.41;33.58;101451.09;5115657;28;20055;-41
2023/01/10 08:43:18;;;;;;;7.65;2.78;;;;;;;25.47;33.35;101452.06;5097592;28;20114;-41
2023/01/10 08:45:46;;;;;;;12.38;3.80;;;;;;;25.47;33.44;101448.59;5115855;28;20016;-41
2023/01/10 08:48:14;;;;;;;13.18;3.60;;;;;;;25.52;33.30;101457.41;5115706;28;20378;-41
2023/01/10 08:50:41;;;;;;;9.85;3.20;;;;;;;25.36;33.75;101452.75;5107179;28;20028;-43
2023/01/10 08:53:09;;;;;;;14.75;4.22;;;;;;;25.46;33.57;101454.69;5101719;28;20028;-41
2023/01/10 08:55:38;;;;;;;11.82;3.72;;;;;;;25.44;33.55;101453.78;5103724;28;20027;-40
2023/01/10 08:58:06;;;;;;;14.07;3.58;;;;;;;25.39;33.46;101455.41;5097002;28;20494;-41
2023/01/10 09:00:35;;;;;;;15.18;3.58;;;;;;;25.33;33.71;101450.97;5106761;28;20035;-41
2023/01/10 09:03:05;;;;;;;14.40;3.95;;;;;;;25.19;33.82;101458.63;5102000;28;20372;-41
2023/01/10 09:05:34;;;;;;;12.07;3.47;;;;;;;25.18;34.11;101447.25;5094782;28;20543;-41
2023/01/10 09:08:04;;;;;;;13.88;3.78;;;;;;;25.17;34.14;101445.47;5094754;28;20028;-41
2023/01/10 09:10:32;;;;;;;10.98;3.10;;;;;;;25.20;34.02;101455.13;5094880;28;20020;-40
2023/01/10 09:13:01;;;;;;;12.93;4.10;;;;;;;25.18;33.69;101438.47;5077026;28;20039;-41
2023/01/10 09:15:32;;;;;;;13.65;3.50;;;;;;;25.23;34.06;101451.69;5094422;28;20020;-40
2023/01/10 09:18:03;;;;;;;14.07;3.72;;;;;;;25.21;34.00;101458.66;5094692;28;20035;-40
2023/01/10 09:20:35;;;;;;;14.07;4.00;;;;;;;25.30;34.03;101464.94;5076707;28;20020;-40
2023/01/10 09:23:16;;;;;;;15.95;3.95;;;;;;;25.30;33.81;101445.66;5094418;28;20127;-40
2023/01/10 09:25:46;;;;;;;17.05;4.45;;;;;;;25.39;33.58;101461.56;5077740;28;20016;-41
2023/01/10 09:28:15;;;;;;;13.75;3.55;;;;;;;25.32;33.78;101460.56;5094311;28;20032;-41
2023/01/10 09:30:43;;;;;;;13.27;4.50;;;;;;;25.27;33.88;101459.63;5093816;28;20028;-41
2023/01/10 09:33:12;;;;;;;14.15;3.58;;;;;;;25.24;34.22;101461.31;5094434;28;20024;-41
2023/01/10 09:35:42;;;;;;;12.93;3.72;;;;;;;25.24;34.21;101458.69;5076244;28;20032;-41
2023/01/10 09:38:21;;;;;;;18.45;4.47;;;;;;;25.28;33.98;101466.66;5077042;28;20035;-42
2023/01/10 09:41:13;;;;;;;13.85;4.50;;;;;;;25.36;34.02;101461.53;5120491;27;20027;-41
2023/01/10 09:44:04;;;;;;;11.13;3.33;;;;;;;25.37;34.12;101472.91;5106171;27;20449;-41
2023/01/10 09:46:50;;;;;;;12.68;3.28;;;;;;;25.31;34.02;101471.97;5114242;27;20096;-41
2023/01/10 09:49:41;;;;;;;19.33;5.28;;;;;;;25.29;34.12;101468.44;5104304;27;20040;-41
2023/01/10 09:52:20;;;;;;;14.82;3.58;;;;;;;25.36;34.10;101464.16;5112478;27;20026;-41
2023/01/10 09:54:48;;;;;;;12.15;4.32;;;;;;;25.30;33.99;101464.94;5116798;27;20055;-43
2023/01/10 09:57:20;;;;;;;11.23;3.70;;;;;;;25.25;33.93;101463.09;5112047;28;20136;-41
2023/01/10 09:59:50;;;;;;;11.30;3.47;;;;;;;25.23;33.89;101465.69;5120112;27;20477;-40
2023/01/10 10:02:21;;;;;;;12.52;3.55;;;;;;;25.20;33.97;101463.00;5117973;27;20043;-42
2023/01/10 10:05:10;;;;;;;11.02;3.42;;;;;;;25.11;34.29;101457.63;5124423;27;20067;-41
2023/01/10 10:07:38;;;;;;;10.13;3.45;;;;;;;25.10;34.36;101459.34;5114638;27;20046;-41
2023/01/10 10:10:08;;;;;;;13.25;3.72;;;;;;;25.18;34.11;101464.72;5102020;28;20148;-41
2023/01/10 10:12:43;;;;;;;16.38;4.65;;;;;;;25.20;34.15;101472.66;5105282;27;20478;-43
2023/01/10 10:15:31;;;;;;;14.93;4.68;;;;;;;25.14;34.46;101473.44;5122414;27;20039;-41
2023/01/10 10:18:04;;;;;;;10.38;3.53;;;;;;;25.20;34.29;101473.53;5109925;27;20498;-40
2023/01/10 10:20:39;;;;;;;9.65;3.65;;;;;;;25.31;33.81;101474.59;5118538;27;20039;-41
2023/01/10 10:23:30;;;;;;;12.50;3.83;;;;;;;25.26;34.03;101476.25;5105645;27;20093;-41
2023/01/10 10:26:20;;;;;;;9.85;3.60;;;;;;;25.25;34.05;101470.97;5111186;27;20039;-41
2023/01/10 10:28:57;;;;;;;11.15;4.13;;;;;;;25.17;34.34;101468.22;5099714;27;20046;-41
2023/01/10 10:31:43;;;;;;;12.60;3.60;;;;;;;25.13;34.23;101471.66;5124303;27;20023;-40
2023/01/10 10:34:15;;;;;;;10.95;3.30;;;;;;;25.18;33.95;101481.38;5111279;27;20067;-41
2023/01/10 10:36:45;;;;;;;9.45;2.85;;;;;;;25.30;34.17;101491.22;5122799;27;20027;-42
2023/01/10 10:39:16;;;;;;;12.65;3.63;;;;;;;25.29;33.92;101486.81;5103322;27;20027;-41
2023/01/10 10:41:46;;;;;;;10.77;3.17;;;;;;;25.24;34.25;101483.22;5104133;28;20034;-40
2023/01/10 10:44:53;;;;;;;11.23;3.85;;;;;;;25.26;34.18;101476.25;5122403;27;20023;-42
2023/01/10 10:47:23;;;;;;;14.20;4.18;;;;;;;25.18;34.07;101469.97;5120468;27;20106;-41
2023/01/10 10:50:04;;;;;;;10.93;3.42;;;;;;;25.22;34.33;101473.56;5119073;28;20106;-43
2023/01/10 10:52:34;;;;;;;14.98;3.55;;;;;;;25.28;33.74;101468.38;5120779;28;20382;-43
2023/01/10 10:55:04;;;;;;;13.32;3.72;;;;;;;25.39;33.73;101468.56;5099937;28;20371;-41
2023/01/10 10:57:33;;;;;;;14.20;3.40;;;;;;;25.26;33.83;101467.47;5123363;28;20058;-47
2023/01/10 11:00:08;;;;;;;17.63;3.65;;;;;;;25.24;34.16;101459.59;5120938;28;20039;-42
2023/01/10 11:02:43;;;;;;;11.70;3.47;;;;;;;25.24;34.20;101464.84;5102824;28;20478;-42
2023/01/10 11:05:24;;;;;;;10.38;3.75;;;;;;;25.17;34.16;101453.38;5106951;27;20028;-42
2023/01/10 11:07:53;;;;;;;11.05;3.53;;;;;;;25.18;34.22;101454.22;5108143;27;20034;-42
2023/01/10 11:10:43;;;;;;;11.77;3.33;;;;;;;25.20;34.16;101444.63;5108259;27;20027;-41
2023/01/10 11:13:30;;;;;;;14.30;3.60;;;;;;;25.20;33.99;101444.63;5122079;27;20497;-40
2023/01/10 11:15:58;;;;;;;12.10;3.80;;;;;;;25.24;33.95;101433.31;5106922;27;20027;-41
2023/01/10 11:18:29;;;;;;;14.10;3.92;;;;;;;25.41;33.84;101440.56;5126039;27;20361;-43
2023/01/10 11:20:58;;;;;;;15.38;3.97;;;;;;;25.42;33.83;101440.63;5108845;27;20020;-43
2023/01/10 11:23:36;;;;;;;12.40;3.35;;;;;;;25.24;34.21;101432.44;5125744;27;20473;-41
2023/01/10 11:26:04;;;;;;;14.77;4.45;;;;;;;25.36;34.16;101440.50;5127519;27;20532;-42
2023/01/10 11:28:34;;;;;;;13.85;3.75;;;;;;;25.38;33.89;101435.28;5122632;27;20039;-41
2023/01/10 11:31:02;;;;;;;10.13;3.40;;;;;;;25.27;33.99;101433.38;5126712;27;20072;-41
2023/01/10 11:33:34;;;;;;;10.35;3.45;;;;;;;25.24;34.35;101424.56;5125323;27;20515;-43
2023/01/10 11:36:05;;;;;;;14.82;4.32;;;;;;;25.19;34.20;101427.13;5126439;27;20028;-40
2023/01/10 11:38:33;;;;;;;9.57;3.50;;;;;;;25.17;34.44;101418.31;5104821;28;20031;-41
2023/01/10 11:41:03;;;;;;;14.48;3.75;;;;;;;25.21;34.13;101411.41;5108110;27;20420;-42
2023/01/10 11:43:35;;;;;;;15.48;3.67;;;;;;;25.10;34.37;101416.50;5125371;27;20027;-44
2023/01/10 11:46:24;;;;;;;13.32;3.70;;;;;;;25.16;34.55;101421.81;5126215;27;20032;-42
2023/01/10 11:49:11;;;;;;;14.18;4.35;;;;;;;25.21;34.43;101409.66;5126394;27;20087;-41